Time;durP1;ratioP1;P1;durP2;ratioP2;P2;SDS_P1;SDS_P2;PMS_P1;PMS_P2;Temp;Humidity;BMP_temperature;BMP_pressure;BME280_temperature;BME280_humidity;BME280_pressure;Samples;Min_cycle;Max_cycle;Signal;HPM_P1;HPM_P2
2021/12/11 00:01:48;;;;;;;119.65;44.33;;;;;;;0.48;100.00;100373.56;5169366;28;20068;-65
2021/12/11 00:04:28;;;;;;;118.40;45.67;;;;;;;0.41;100.00;100373.88;5169274;28;20027;-65
2021/12/11 00:07:04;;;;;;;115.45;44.75;;;;;;;0.37;100.00;100378.41;5168801;28;20026;-65
2021/12/11 00:09:41;;;;;;;117.05;45.42;;;;;;;0.36;100.00;100390.66;5171039;28;20030;-65
2021/12/11 00:12:22;;;;;;;126.13;47.25;;;;;;;0.33;100.00;100395.19;5169936;28;20026;-65
2021/12/11 00:15:01;;;;;;;92.32;41.67;;;;;;;0.36;100.00;100387.19;5173250;28;20031;-65
2021/12/11 00:17:34;;;;;;;94.22;40.22;;;;;;;0.37;100.00;100396.78;5169152;28;20125;-65
2021/12/11 00:20:15;;;;;;;112.20;45.92;;;;;;;0.33;100.00;100400.44;5172661;28;20085;-65
2021/12/11 00:22:46;;;;;;;104.45;42.38;;;;;;;0.33;100.00;100411.78;5168651;28;20030;-65
2021/12/11 00:25:18;;;;;;;94.30;39.67;;;;;;;0.36;100.00;100422.13;5166505;28;20491;-65
2021/12/11 00:27:58;;;;;;;127.30;47.30;;;;;;;0.27;100.00;100426.91;5164481;28;20033;-65
2021/12/11 00:30:35;;;;;;;139.75;47.47;;;;;;;0.24;100.00;100417.41;5164671;28;20031;-65
2021/12/11 00:33:16;;;;;;;131.02;47.92;;;;;;;0.26;100.00;100430.47;5165163;28;20400;-65
2021/12/11 00:35:50;;;;;;;111.97;43.15;;;;;;;0.28;100.00;100434.72;5162899;28;20043;-65
2021/12/11 00:38:33;;;;;;;95.85;39.92;;;;;;;0.33;100.00;100445.06;5165448;28;20065;-65
2021/12/11 00:41:08;;;;;;;121.95;45.38;;;;;;;0.25;100.00;100447.09;5164726;28;20060;-65
2021/12/11 00:43:41;;;;;;;113.93;45.13;;;;;;;0.22;100.00;100452.50;5165569;28;20461;-65
2021/12/11 00:46:17;;;;;;;106.40;41.55;;;;;;;0.26;100.00;100451.47;5167343;28;20049;-65
2021/12/11 00:48:49;;;;;;;129.13;44.17;;;;;;;0.19;100.00;100454.34;5168207;28;20560;-65
2021/12/11 00:51:22;;;;;;;105.32;40.67;;;;;;;0.15;100.00;100468.50;5167010;28;20039;-65
2021/12/11 00:53:57;;;;;;;99.55;40.13;;;;;;;0.15;100.00;100458.00;5164759;28;20045;-65
2021/12/11 00:56:34;;;;;;;107.50;42.45;;;;;;;0.13;100.00;100465.03;5167587;28;20058;-65
2021/12/11 00:59:12;;;;;;;118.32;44.25;;;;;;;0.06;100.00;100473.22;5168732;28;20030;-65
2021/12/11 01:01:57;;;;;;;118.50;42.72;;;;;;;0.05;100.00;100485.47;5172050;28;20027;-65
2021/12/11 01:04:40;;;;;;;115.13;44.22;;;;;;;0.05;100.00;100482.00;5176972;28;20096;-65
2021/12/11 01:07:19;;;;;;;118.90;42.25;;;;;;;0.03;100.00;100484.69;5172837;28;20438;-65
2021/12/11 01:09:55;;;;;;;138.75;45.95;;;;;;;-0.06;100.00;100493.78;5166984;28;20142;-65
2021/12/11 01:12:41;;;;;;;106.65;41.58;;;;;;;-0.02;100.00;100494.50;5164712;28;20468;-65
2021/12/11 01:15:18;;;;;;;119.85;40.90;;;;;;;-0.06;100.00;100511.25;5165824;28;20042;-65
2021/12/11 01:26:15;;;;;;;99.25;37.38;;;;;;;-0.10;100.00;100518.38;5173331;28;20043;-65
2021/12/11 01:28:49;;;;;;;151.18;46.33;;;;;;;-0.22;100.00;100521.47;5166535;28;20185;-65
2021/12/11 01:31:22;;;;;;;136.75;44.20;;;;;;;-0.19;100.00;100529.25;5168153;28;20058;-65
2021/12/11 01:33:56;;;;;;;105.03;38.50;;;;;;;-0.11;100.00;100529.81;5166667;28;20065;-65
2021/12/11 01:36:27;;;;;;;108.88;39.92;;;;;;;-0.14;100.00;100542.16;5170517;28;20555;-65
2021/12/11 01:39:04;;;;;;;122.85;42.67;;;;;;;-0.21;100.00;100552.88;5164958;28;20085;-65
2021/12/11 01:41:36;;;;;;;126.85;43.28;;;;;;;-0.21;100.00;100558.13;5167614;28;20488;-65
2021/12/11 01:44:16;;;;;;;130.40;42.38;;;;;;;-0.18;100.00;100566.78;5151467;28;20037;-65
2021/12/11 01:46:48;;;;;;;115.50;38.25;;;;;;;-0.17;100.00;100569.38;5164892;28;20412;-65
2021/12/11 01:49:21;;;;;;;144.30;45.72;;;;;;;-0.22;100.00;100580.00;5165838;28;20033;-65
2021/12/11 01:51:59;;;;;;;115.50;39.53;;;;;;;-0.16;100.00;100585.94;5165788;28;20031;-65
2021/12/11 01:54:37;;;;;;;111.15;38.13;;;;;;;-0.18;100.00;100586.00;5166062;28;20042;-65
2021/12/11 01:57:13;;;;;;;119.85;41.55;;;;;;;-0.23;100.00;100599.28;5165716;28;20063;-65
2021/12/11 01:59:47;;;;;;;128.98;43.33;;;;;;;-0.26;100.00;100615.09;5167043;28;20023;-65
2021/12/11 02:02:25;;;;;;;112.25;40.25;;;;;;;-0.20;100.00;100617.50;5168550;28;20117;-65
2021/12/11 02:04:57;;;;;;;137.25;44.22;;;;;;;-0.20;100.00;100630.63;5150354;28;21356;-65
2021/12/11 02:07:41;;;;;;;128.70;44.20;;;;;;;-0.15;100.00;100632.22;5169725;28;20381;-65
2021/12/11 02:10:19;;;;;;;156.45;47.40;;;;;;;-0.15;100.00;100630.47;5165220;28;20038;-65
2021/12/11 02:12:53;;;;;;;162.10;46.92;;;;;;;-0.11;100.00;100625.97;5167561;28;20153;-65
2021/12/11 02:15:33;;;;;;;123.72;41.33;;;;;;;-0.08;100.00;100623.22;5163175;28;20031;-65
2021/12/11 02:18:19;;;;;;;134.00;43.13;;;;;;;-0.06;100.00;100642.38;5166524;28;20063;-65
2021/12/11 02:21:05;;;;;;;136.77;42.20;;;;;;;-0.05;100.00;100641.50;5170445;28;20461;-65
2021/12/11 02:23:37;;;;;;;131.88;41.85;;;;;;;-0.03;100.00;100640.50;5166731;28;20041;-65
2021/12/11 02:26:13;;;;;;;111.15;38.63;;;;;;;0.02;100.00;100642.97;5167807;28;20050;-65
2021/12/11 02:28:54;;;;;;;146.02;46.13;;;;;;;-0.03;100.00;100648.38;5165039;28;20030;-65
2021/12/11 02:31:31;;;;;;;122.13;41.65;;;;;;;-0.01;100.00;100661.44;5164910;28;20070;-65
2021/12/11 02:34:11;;;;;;;113.20;39.25;;;;;;;0.05;100.00;100666.47;5165779;28;20065;-65
2021/12/11 02:36:48;;;;;;;119.95;39.70;;;;;;;0.06;100.00;100670.81;5165659;28;20081;-65
2021/12/11 02:39:33;;;;;;;113.47;39.47;;;;;;;0.07;100.00;100677.75;5168570;28;20500;-65
2021/12/11 02:42:17;;;;;;;139.75;42.17;;;;;;;0.09;100.00;100683.78;5166003;28;20037;-65
2021/12/11 02:45:00;;;;;;;113.28;39.38;;;;;;;0.10;100.00;100682.91;5165659;28;20034;-65
2021/12/11 02:47:39;;;;;;;126.32;41.38;;;;;;;0.10;100.00;100682.06;5164542;28;20042;-65
2021/12/11 02:50:25;;;;;;;130.88;43.08;;;;;;;0.07;100.00;100685.63;5169732;28;20035;-65
2021/12/11 02:53:10;;;;;;;145.65;45.25;;;;;;;0.04;100.00;100688.38;5165760;28;20532;-65
2021/12/11 02:55:57;;;;;;;127.60;43.15;;;;;;;0.09;100.00;100698.69;5167441;28;20026;-65
2021/12/11 02:58:32;;;;;;;140.40;43.95;;;;;;;0.04;100.00;100698.88;5167015;28;20030;-65
2021/12/11 03:01:22;;;;;;;122.35;40.25;;;;;;;0.09;100.00;100699.53;5167207;28;20476;-65
2021/12/11 03:04:09;;;;;;;119.38;39.00;;;;;;;0.11;100.00;100712.59;5167185;28;20034;-65
2021/12/11 03:06:45;;;;;;;129.63;44.10;;;;;;;0.06;100.00;100706.66;5165422;28;20061;-65
2021/12/11 03:09:22;;;;;;;128.20;41.17;;;;;;;0.06;100.00;100712.78;5166757;28;20427;-65
2021/12/11 03:11:57;;;;;;;129.57;41.35;;;;;;;0.06;100.00;100715.41;5164733;28;20037;-65
2021/12/11 03:14:29;;;;;;;118.97;41.55;;;;;;;0.08;100.00;100723.22;5166851;28;20512;-65
2021/12/11 03:17:01;;;;;;;109.15;38.67;;;;;;;0.16;100.00;100724.66;5165883;28;20027;-65
2021/12/11 03:19:37;;;;;;;150.68;43.90;;;;;;;0.13;100.00;100727.38;5164668;28;20027;-65
2021/12/11 03:22:19;;;;;;;137.23;44.15;;;;;;;0.15;100.00;100724.69;5164114;28;20526;-65
2021/12/11 03:24:51;;;;;;;126.50;41.00;;;;;;;0.23;100.00;100740.16;5166376;28;20485;-65
2021/12/11 03:27:23;;;;;;;139.75;43.97;;;;;;;0.21;100.00;100737.59;5164729;28;20340;-65
2021/12/11 03:29:54;;;;;;;156.27;45.53;;;;;;;0.25;100.00;100746.22;5163600;28;20074;-65
2021/12/11 03:32:26;;;;;;;112.80;38.88;;;;;;;0.35;100.00;100742.38;5161912;28;20054;-65
2021/12/11 03:34:57;;;;;;;164.95;48.35;;;;;;;0.29;100.00;100742.56;5164330;28;20381;-65
2021/12/11 03:37:29;;;;;;;124.80;39.42;;;;;;;0.34;100.00;100751.16;5165442;28;20384;-65
2021/12/11 03:40:01;;;;;;;166.45;47.65;;;;;;;0.30;100.00;100749.53;5169337;28;20031;-65
2021/12/11 03:42:35;;;;;;;134.95;43.53;;;;;;;0.36;100.00;100747.53;5164199;28;20027;-65
2021/12/11 03:45:11;;;;;;;129.98;41.08;;;;;;;0.39;100.00;100743.97;5169282;28;20134;-65
2021/12/11 03:47:48;;;;;;;134.35;42.30;;;;;;;0.40;100.00;100743.03;5164432;28;20057;-65
2021/12/11 03:50:21;;;;;;;114.15;39.63;;;;;;;0.50;100.00;100751.44;5167103;28;20536;-65
2021/12/11 03:52:54;;;;;;;123.63;42.47;;;;;;;0.50;100.00;100757.56;5166842;28;20541;-65
2021/12/11 03:55:30;;;;;;;141.13;42.88;;;;;;;0.54;100.00;100756.53;5165657;28;20476;-65
2021/12/11 03:58:03;;;;;;;122.57;41.42;;;;;;;0.63;100.00;100765.84;5165329;28;20105;-65
2021/12/11 04:00:39;;;;;;;135.90;44.50;;;;;;;0.63;100.00;100764.97;5165375;28;20053;-65
2021/12/11 04:03:14;;;;;;;164.00;50.17;;;;;;;0.64;100.00;100772.81;5167061;28;20031;-65
2021/12/11 04:05:47;;;;;;;135.88;44.47;;;;;;;0.69;100.00;100767.38;5167350;28;20508;-65
2021/12/11 04:08:24;;;;;;;144.68;44.50;;;;;;;0.76;100.00;100771.50;5163640;28;20038;-65
2021/12/11 04:10:56;;;;;;;128.93;44.42;;;;;;;0.82;100.00;100770.41;5166169;28;20034;-65
2021/12/11 04:13:27;;;;;;;167.38;50.63;;;;;;;0.79;100.00;100774.03;5165019;28;20031;-65
2021/12/11 04:15:59;;;;;;;165.57;49.92;;;;;;;0.84;100.00;100779.94;5170212;28;20030;-65
2021/12/11 04:18:31;;;;;;;188.48;52.05;;;;;;;0.89;100.00;100791.16;5166556;28;20043;-65
2021/12/11 04:21:03;;;;;;;135.93;45.78;;;;;;;0.96;100.00;100792.63;5169015;28;20477;-65
2021/12/11 04:23:34;;;;;;;155.95;47.33;;;;;;;0.99;100.00;100796.91;5170038;28;20496;-65
2021/12/11 04:26:06;;;;;;;147.68;45.20;;;;;;;1.03;100.00;100808.16;5171719;28;20694;-65
2021/12/11 04:28:39;;;;;;;199.23;53.00;;;;;;;1.02;100.00;100803.81;5173682;28;20063;-65
2021/12/11 04:31:18;;;;;;;157.02;49.60;;;;;;;1.06;100.00;100800.19;5169648;28;20051;-65
2021/12/11 04:33:52;;;;;;;131.55;44.30;;;;;;;1.14;100.00;100803.34;5168284;28;20030;-65
2021/12/11 04:36:30;;;;;;;164.35;50.08;;;;;;;1.10;100.00;100799.16;5169267;28;20539;-65
2021/12/11 04:39:06;;;;;;;157.88;46.92;;;;;;;1.13;100.00;100813.03;5167504;28;20058;-65
2021/12/11 04:41:49;;;;;;;148.02;46.42;;;;;;;1.17;100.00;100809.38;5167172;28;20080;-65
2021/12/11 04:44:32;;;;;;;122.47;42.28;;;;;;;1.27;100.00;100817.75;5171064;28;20039;-66
2021/12/11 04:47:14;;;;;;;196.15;52.13;;;;;;;1.22;100.00;100827.56;5165026;28;20027;-66
2021/12/11 04:49:52;;;;;;;170.45;47.58;;;;;;;1.26;100.00;100830.94;5167137;28;20027;-66
2021/12/11 04:52:34;;;;;;;131.98;44.55;;;;;;;1.26;100.00;100834.41;5170036;28;20027;-66
2021/12/11 05:04:01;;;;;;;111.18;40.30;;;;;;;1.41;100.00;100850.53;5168655;28;20035;-66
2021/12/11 05:06:37;;;;;;;116.38;42.03;;;;;;;1.44;100.00;100851.28;5166947;28;20089;-66
2021/12/11 05:09:22;;;;;;;118.13;41.38;;;;;;;1.49;100.00;100853.72;5171289;28;20030;-66
2021/12/11 05:14:59;;;;;;;125.43;42.77;;;;;;;1.47;100.00;100855.53;5148942;28;20041;-66
2021/12/11 05:17:30;;;;;;;171.57;48.25;;;;;;;1.48;100.00;100867.78;5169275;28;20035;-66
2021/12/11 05:20:04;;;;;;;143.38;46.17;;;;;;;1.52;100.00;100864.97;5169891;28;20478;-66
2021/12/11 05:22:36;;;;;;;161.73;47.83;;;;;;;1.50;100.00;100874.69;5167942;28;20472;-66
2021/12/11 05:25:11;;;;;;;162.13;47.78;;;;;;;1.51;100.00;100878.16;5168001;28;20093;-66
2021/12/11 05:27:43;;;;;;;;;;;;;;;1.59;100.00;100876.09;5165518;28;20101;-66
2021/12/11 05:30:22;;;;;;;126.97;41.55;;;;;;;1.59;100.00;100893.66;5165245;28;19928;-66
2021/12/11 05:32:56;;;;;;;120.63;40.53;;;;;;;1.60;100.00;100883.09;5164991;28;20505;-66
2021/12/11 05:35:30;;;;;;;117.45;41.90;;;;;;;1.65;100.00;100882.91;5168483;28;21356;-66
2021/12/11 05:38:04;;;;;;;141.70;45.67;;;;;;;1.64;100.00;100882.03;5169153;28;20050;-66
2021/12/11 05:40:40;;;;;;;199.95;52.50;;;;;;;1.62;100.00;100894.41;5168222;28;20027;-66
2021/12/11 05:43:12;;;;;;;138.02;44.78;;;;;;;1.66;100.00;100903.88;5166692;28;20054;-66
2021/12/11 05:45:43;;;;;;;114.60;41.13;;;;;;;1.71;100.00;100893.19;5169534;28;20165;-66
2021/12/11 05:48:15;;;;;;;146.77;45.38;;;;;;;1.65;100.00;100902.19;5169938;28;20484;-66
2021/12/11 05:50:51;;;;;;;175.10;51.85;;;;;;;1.61;100.00;100913.75;5171447;28;20045;-66
2021/12/11 05:53:24;;;;;;;123.22;42.50;;;;;;;1.70;100.00;100913.34;5165926;28;20038;-66
2021/12/11 05:55:56;;;;;;;125.63;44.20;;;;;;;1.69;100.00;100913.44;5165929;28;20109;-66
2021/12/11 05:58:47;;;;;;;143.10;46.60;;;;;;;1.70;100.00;100907.25;5150089;28;20031;-66
2021/12/11 06:01:22;;;;;;;129.90;43.95;;;;;;;1.72;100.00;100914.16;5169375;28;20058;-66
2021/12/11 06:03:54;;;;;;;120.60;43.42;;;;;;;1.77;100.00;100903.47;5167154;28;20124;-66
2021/12/11 06:06:26;;;;;;;123.35;42.78;;;;;;;1.73;100.00;100912.41;5164993;28;20085;-66
2021/12/11 06:08:57;;;;;;;123.07;41.03;;;;;;;1.72;100.00;100927.31;5168653;28;20034;-66
2021/12/11 06:11:29;;;;;;;146.15;48.33;;;;;;;1.62;100.00;100925.97;5167484;28;20034;-66
2021/12/11 06:14:00;;;;;;;112.38;40.55;;;;;;;1.66;100.00;100922.28;5166267;28;20074;-66
2021/12/11 06:16:32;;;;;;;125.45;42.78;;;;;;;1.71;100.00;100925.63;5163384;28;20046;-66
2021/12/11 06:19:05;;;;;;;162.25;46.97;;;;;;;1.63;100.00;100932.94;5171558;28;20397;-66
2021/12/11 06:21:37;;;;;;;111.22;40.38;;;;;;;1.62;100.00;100936.47;5169689;28;20125;-66
2021/12/11 06:24:08;;;;;;;94.43;38.70;;;;;;;1.62;100.00;100940.88;5173244;28;20521;-66
2021/12/11 06:26:40;;;;;;;102.63;39.00;;;;;;;1.61;100.00;100940.03;5171449;28;20125;-66
2021/12/11 06:29:11;;;;;;;145.75;45.80;;;;;;;1.52;100.00;100949.13;5174389;28;20035;-66
2021/12/11 06:31:44;;;;;;;101.53;40.13;;;;;;;1.60;100.00;100943.56;5170801;28;20069;-66
2021/12/11 06:34:15;;;;;;;101.72;40.47;;;;;;;1.70;100.00;100951.97;5172024;28;20030;-66
2021/12/11 06:36:47;;;;;;;103.88;40.33;;;;;;;1.67;100.00;100955.56;5171014;28;20566;-66
2021/12/11 06:39:22;;;;;;;139.52;45.60;;;;;;;1.67;100.00;100955.56;5171576;28;20498;-66
2021/12/11 06:41:57;;;;;;;174.23;51.15;;;;;;;1.67;100.00;100962.59;5172079;28;20027;-66
2021/12/11 06:44:28;;;;;;;167.48;50.42;;;;;;;1.74;100.00;100970.19;5173099;28;20045;-66
2021/12/11 06:47:03;;;;;;;167.13;52.58;;;;;;;1.73;100.00;100975.53;5173915;28;20368;-66
2021/12/11 06:49:36;;;;;;;130.10;47.75;;;;;;;1.86;100.00;100989.06;5171170;28;20489;-66
2021/12/11 06:52:13;;;;;;;168.80;52.55;;;;;;;1.84;100.00;100983.88;5172059;28;20115;-66
2021/12/11 06:54:45;;;;;;;200.70;55.05;;;;;;;1.90;100.00;100988.06;5172202;28;20208;-66
2021/12/11 06:57:17;;;;;;;220.90;61.60;;;;;;;1.89;100.00;100994.22;5171705;28;20049;-66
2021/12/11 06:59:49;;;;;;;236.50;62.38;;;;;;;1.91;100.00;100992.38;5171103;28;20031;-66
2021/12/11 07:02:21;;;;;;;214.48;61.65;;;;;;;1.92;100.00;100996.75;5173645;28;20404;-66
2021/12/11 07:04:55;;;;;;;189.55;57.78;;;;;;;1.95;100.00;100994.81;5171865;28;20115;-66
2021/12/11 07:07:32;;;;;;;163.55;56.35;;;;;;;1.96;100.00;100999.19;5153686;28;20034;-66
2021/12/11 07:10:07;;;;;;;184.52;58.55;;;;;;;2.04;100.00;101005.94;5173750;28;20034;-66
2021/12/11 07:12:38;;;;;;;148.57;54.10;;;;;;;2.08;100.00;101008.38;5166276;28;20043;-66
2021/12/11 07:15:10;;;;;;;147.23;52.92;;;;;;;2.08;100.00;101016.28;5170766;28;20029;-66
2021/12/11 07:17:41;;;;;;;189.25;62.13;;;;;;;2.10;100.00;101009.19;5171398;28;20110;-66
2021/12/11 07:20:14;;;;;;;169.43;58.08;;;;;;;2.15;100.00;101020.41;5171132;28;20035;-66
2021/12/11 07:22:45;;;;;;;196.77;61.65;;;;;;;2.15;100.00;101017.75;5167900;28;20053;-66
2021/12/11 07:25:28;;;;;;;150.38;53.88;;;;;;;2.20;100.00;101022.84;5169200;28;20483;-66
2021/12/11 07:28:03;;;;;;;173.45;58.40;;;;;;;2.21;100.00;101028.97;5167729;28;20244;-66
2021/12/11 07:30:36;;;;;;;154.38;57.13;;;;;;;2.18;100.00;101037.84;5153454;28;20069;-66
2021/12/11 07:33:09;;;;;;;149.15;52.88;;;;;;;2.26;100.00;101042.81;5170580;28;20047;-66
2021/12/11 07:35:42;;;;;;;153.60;54.25;;;;;;;2.31;100.00;101051.38;5170965;28;20615;-66
2021/12/11 07:38:13;;;;;;;163.80;54.72;;;;;;;2.34;100.00;101053.91;5153022;28;20451;-66
2021/12/11 07:40:58;;;;;;;134.80;49.30;;;;;;;2.40;100.00;101056.31;5170880;28;20476;-66
2021/12/11 07:43:30;;;;;;;147.57;52.17;;;;;;;2.41;100.00;101065.06;5168765;28;20476;-66
2021/12/11 07:46:03;;;;;;;137.98;51.00;;;;;;;2.44;100.00;101057.91;5167785;28;20104;-66
2021/12/11 07:48:35;;;;;;;131.18;47.53;;;;;;;2.45;100.00;101067.50;5152953;28;20046;-66
2021/12/11 07:51:07;;;;;;;127.75;46.15;;;;;;;2.48;100.00;101069.16;5167475;28;20035;-66
2021/12/11 07:53:40;;;;;;;133.23;49.45;;;;;;;2.49;100.00;101073.50;5172570;28;20023;-66
2021/12/11 07:56:11;;;;;;;119.28;43.72;;;;;;;2.56;100.00;101074.97;5172663;28;20046;-66
2021/12/11 07:58:43;;;;;;;116.78;42.88;;;;;;;2.60;100.00;101075.72;5171894;28;20031;-66
2021/12/11 08:01:15;;;;;;;103.72;38.45;;;;;;;2.65;100.00;101085.16;5174621;28;20030;-66
2021/12/11 08:03:46;;;;;;;109.80;40.78;;;;;;;2.66;100.00;101092.13;5175437;28;20404;-66
2021/12/11 08:06:17;;;;;;;104.47;37.00;;;;;;;2.72;100.00;101096.31;5175535;28;20530;-66
2021/12/11 08:08:49;;;;;;;97.88;34.78;;;;;;;2.75;100.00;101093.56;5174373;28;20027;-65
2021/12/11 08:11:21;;;;;;;99.25;35.13;;;;;;;2.72;100.00;101096.31;5174350;28;20035;-65
2021/12/11 08:13:52;;;;;;;69.68;29.35;;;;;;;2.73;100.00;101104.16;5173701;28;20109;-65
2021/12/11 08:16:31;;;;;;;76.63;29.55;;;;;;;2.69;100.00;101107.81;5174254;28;20109;-65
2021/12/11 08:19:04;;;;;;;69.75;26.85;;;;;;;2.70;100.00;101106.91;5174574;28;20029;-66
2021/12/11 08:21:35;;;;;;;63.80;24.23;;;;;;;2.72;100.00;101114.75;5173480;28;20026;-66
2021/12/11 08:24:07;;;;;;;76.18;25.20;;;;;;;2.72;100.00;101118.25;5175697;28;20057;-66
2021/12/11 08:26:41;;;;;;;65.95;24.48;;;;;;;2.69;100.00;101118.38;5172305;28;20038;-66
2021/12/11 08:29:14;;;;;;;72.38;23.92;;;;;;;2.67;100.00;101128.09;5175124;28;20158;-66
2021/12/11 08:31:49;;;;;;;63.78;21.23;;;;;;;2.77;100.00;101135.66;5172793;28;20255;-65
2021/12/11 08:34:21;;;;;;;65.05;21.10;;;;;;;2.76;100.00;101145.31;5173431;28;20488;-65
2021/12/11 08:36:52;;;;;;;50.83;19.15;;;;;;;2.76;100.00;101140.03;5172562;28;20026;-65
2021/12/11 08:39:26;;;;;;;55.95;17.92;;;;;;;2.79;100.00;101141.72;5155960;28;20513;-65
2021/12/11 08:41:58;;;;;;;49.30;15.80;;;;;;;2.85;100.00;101158.13;5171436;28;20023;-65
2021/12/11 08:44:35;;;;;;;56.28;16.80;;;;;;;2.83;100.00;101157.34;5171106;28;20502;-65
2021/12/11 08:47:10;;;;;;;56.38;15.75;;;;;;;2.87;100.00;101152.81;5163107;28;20404;-65
2021/12/11 08:49:42;;;;;;;49.38;15.30;;;;;;;2.92;100.00;101159.63;5167256;28;20041;-65
2021/12/11 08:52:27;;;;;;;43.67;13.50;;;;;;;3.07;100.00;101170.50;5170049;28;20026;-65
2021/12/11 08:55:03;;;;;;;37.20;13.13;;;;;;;3.07;100.00;101167.84;5165050;28;20444;-65
2021/12/11 08:57:39;;;;;;;40.90;12.50;;;;;;;3.13;100.00;101179.00;5173438;28;20085;-65
2021/12/11 09:00:24;;;;;;;41.60;12.88;;;;;;;3.09;100.00;101185.31;5172269;28;20033;-65
2021/12/11 09:03:02;;;;;;;;;;;;;;;3.11;100.00;101178.19;5174338;28;20026;-65
2021/12/11 09:05:40;;;;;;;43.53;12.30;;;;;;;3.22;100.00;101198.88;5173686;28;20401;-65
2021/12/11 09:08:16;;;;;;;48.40;11.73;;;;;;;3.21;100.00;101204.19;5167891;28;20038;-65
2021/12/11 09:10:56;;;;;;;37.20;12.00;;;;;;;3.24;100.00;101210.22;5166072;28;20038;-65
2021/12/11 09:13:32;;;;;;;42.97;12.18;;;;;;;3.24;100.00;101215.50;5161215;28;20070;-65
2021/12/11 09:16:16;;;;;;;36.13;10.63;;;;;;;3.37;100.00;101220.25;5165340;28;20086;-65
2021/12/11 09:18:58;;;;;;;31.30;10.83;;;;;;;3.45;100.00;101228.72;5173858;28;20034;-65
2021/12/11 09:21:34;;;;;;;41.65;10.70;;;;;;;3.49;100.00;101246.13;5172022;28;20289;-65
2021/12/11 09:24:13;;;;;;;39.60;10.82;;;;;;;3.51;100.00;101241.66;5172740;28;20117;-65
2021/12/11 09:26:52;;;;;;;35.15;10.55;;;;;;;3.58;100.00;101244.91;5166571;28;20149;-65
2021/12/11 09:29:37;;;;;;;41.72;11.15;;;;;;;3.64;100.00;101258.69;5174716;28;20117;-65
2021/12/11 09:32:30;;;;;;;;;;;;;;;3.70;100.00;101257.56;5175601;28;20556;-65
2021/12/11 09:35:08;;;;;;;35.80;11.98;;;;;;;3.87;100.00;101267.44;5166083;28;19914;-65
2021/12/11 09:37:43;;;;;;;36.13;11.77;;;;;;;3.99;100.00;101266.94;5177554;28;20507;-65
2021/12/11 09:40:34;;;;;;;37.83;11.18;;;;;;;4.08;100.00;101287.66;5170385;28;20041;-65
2021/12/11 09:43:05;;;;;;;37.08;10.75;;;;;;;4.19;100.00;101283.72;5169520;28;20467;-65
2021/12/11 09:45:42;;;;;;;40.75;10.88;;;;;;;4.28;100.00;101289.47;5176922;28;20053;-65
2021/12/11 09:48:17;;;;;;;25.52;10.20;;;;;;;4.32;100.00;101290.19;5172810;28;20366;-65
2021/12/11 09:50:57;;;;;;;33.85;11.02;;;;;;;4.40;100.00;101305.72;5170484;28;20396;-65
2021/12/11 09:53:36;;;;;;;33.33;11.05;;;;;;;4.44;100.00;101305.50;5173372;28;20041;-65
2021/12/11 09:56:12;;;;;;;33.80;10.25;;;;;;;4.50;100.00;101313.16;5174024;28;20089;-65
2021/12/11 09:58:43;;;;;;;35.67;10.77;;;;;;;4.54;100.00;101320.97;5169767;28;20037;-65
2021/12/11 10:01:23;;;;;;;28.90;9.93;;;;;;;4.54;100.00;101313.88;5155604;28;20563;-65
2021/12/11 10:04:19;;;;;;;28.95;9.68;;;;;;;4.56;100.00;101321.75;5175025;28;20037;-65
2021/12/11 10:09:37;;;;;;;32.67;10.13;;;;;;;4.59;100.00;101325.13;5170225;28;20039;-65
2021/12/11 10:12:10;;;;;;;28.02;8.75;;;;;;;4.61;100.00;101327.69;5175222;28;20086;-65
2021/12/11 10:15:07;;;;;;;25.50;9.63;;;;;;;4.61;100.00;101333.84;5173164;28;20045;-65
2021/12/11 10:17:44;;;;;;;31.67;9.32;;;;;;;4.60;100.00;101332.13;5150637;28;20057;-65
2021/12/11 10:20:31;;;;;;;26.73;8.52;;;;;;;4.65;100.00;101340.69;5175777;28;20030;-65
2021/12/11 10:23:05;;;;;;;28.80;8.57;;;;;;;4.67;100.00;101345.91;5171714;28;20118;-65
2021/12/11 10:25:40;;;;;;;25.23;8.80;;;;;;;4.68;100.00;101355.59;5174676;28;20117;-65
2021/12/11 10:28:17;;;;;;;28.95;8.57;;;;;;;4.66;100.00;101342.44;5171709;28;20042;-65
2021/12/11 10:31:11;;;;;;;25.73;8.32;;;;;;;4.63;100.00;101360.19;5167270;28;20180;-65
2021/12/11 10:33:43;;;;;;;24.05;8.30;;;;;;;4.60;100.00;101357.69;5165313;28;20507;-65
2021/12/11 10:36:18;;;;;;;26.48;9.68;;;;;;;4.60;100.00;101352.41;5168200;28;20030;-65
2021/12/11 10:38:50;;;;;;;28.38;9.25;;;;;;;4.54;100.00;101358.81;5169480;28;20033;-65
2021/12/11 10:41:23;;;;;;;29.75;9.07;;;;;;;4.51;100.00;101359.81;5171233;28;20128;-65
2021/12/11 10:44:02;;;;;;;26.50;9.70;;;;;;;4.50;100.00;101362.50;5168733;28;20039;-65
2021/12/11 10:46:41;;;;;;;27.77;9.10;;;;;;;4.55;100.00;101367.63;5175861;28;20034;-65
2021/12/11 10:49:14;;;;;;;25.67;9.38;;;;;;;4.57;100.00;101377.19;5181575;28;20663;-65
2021/12/11 10:51:59;;;;;;;32.40;11.75;;;;;;;4.58;100.00;101385.97;5172817;28;20031;-65
2021/12/11 10:54:31;;;;;;;29.20;9.57;;;;;;;4.65;100.00;101384.78;5163739;28;20042;-65
2021/12/11 10:57:02;;;;;;;32.88;10.35;;;;;;;4.68;100.00;101382.88;5160818;28;20047;-65
2021/12/11 10:59:38;;;;;;;27.58;10.63;;;;;;;4.71;100.00;101397.72;5169335;28;20042;-65
2021/12/11 11:02:18;;;;;;;30.77;9.82;;;;;;;4.67;100.00;101393.50;5162258;28;20023;-65
2021/12/11 11:04:53;;;;;;;30.00;10.65;;;;;;;4.78;100.00;101408.91;5171541;28;20042;-65
2021/12/11 11:07:26;;;;;;;28.98;9.38;;;;;;;4.85;100.00;101407.69;5165122;28;20031;-65
2021/12/11 11:10:00;;;;;;;25.70;9.27;;;;;;;4.95;100.00;101418.72;5164529;28;20038;-65
2021/12/11 11:12:31;;;;;;;25.42;8.55;;;;;;;5.00;100.00;101419.38;5173322;28;20036;-65
2021/12/11 11:15:04;;;;;;;28.83;9.38;;;;;;;5.07;100.00;101418.19;5166533;28;20034;-65
2021/12/11 11:17:35;;;;;;;23.98;8.20;;;;;;;5.11;100.00;101425.91;5170313;28;20050;-65
2021/12/11 11:20:11;;;;;;;24.38;8.85;;;;;;;5.20;100.00;101426.47;5162522;28;20097;-65
2021/12/11 11:22:45;;;;;;;28.08;8.95;;;;;;;5.22;100.00;101433.38;5159922;28;20524;-65
2021/12/11 11:25:23;;;;;;;23.75;7.50;;;;;;;5.24;100.00;101431.53;5164613;28;20133;-65
2021/12/11 11:28:05;;;;;;;23.35;8.20;;;;;;;5.26;100.00;101440.25;5158787;28;20022;-65
2021/12/11 11:30:43;;;;;;;24.55;7.15;;;;;;;5.27;100.00;101446.41;5173300;28;20165;-65
2021/12/11 11:33:15;;;;;;;27.08;7.72;;;;;;;5.36;100.00;101442.50;5168201;28;20027;-65
2021/12/11 11:35:48;;;;;;;26.48;7.00;;;;;;;5.38;100.00;101445.94;5166604;28;20526;-65
2021/12/11 11:38:26;;;;;;;22.77;7.07;;;;;;;5.35;100.00;101446.94;5171872;28;20023;-65
2021/12/11 11:41:09;;;;;;;20.23;6.93;;;;;;;5.33;100.00;101453.22;5170137;28;20471;-65
2021/12/11 11:43:41;;;;;;;23.63;8.15;;;;;;;5.30;100.00;101457.72;5171137;28;20030;-65
2021/12/11 11:46:13;;;;;;;26.10;9.23;;;;;;;5.33;100.00;101466.44;5163982;28;20130;-65
2021/12/11 11:48:49;;;;;;;26.10;8.82;;;;;;;5.37;100.00;101465.38;5167743;28;20179;-65
2021/12/11 11:51:29;;;;;;;24.80;7.47;;;;;;;5.38;100.00;101467.94;5171011;28;20408;-65
2021/12/11 11:54:02;;;;;;;22.02;7.80;;;;;;;5.42;100.00;101472.16;5170076;28;20038;-65
2021/12/11 11:56:38;;;;;;;20.05;9.68;;;;;;;5.43;100.00;101473.91;5161257;28;20040;-65
2021/12/11 11:59:11;;;;;;;27.15;8.50;;;;;;;5.46;100.00;101464.97;5168257;28;20031;-65
2021/12/11 12:01:49;;;;;;;25.98;7.80;;;;;;;5.41;100.00;101473.13;5159870;28;20023;-65
2021/12/11 12:04:22;;;;;;;18.00;7.82;;;;;;;5.33;100.00;101475.25;5170048;28;20551;-65
2021/12/11 12:06:58;;;;;;;18.55;7.18;;;;;;;5.23;100.00;101485.34;5166609;28;20453;-65
2021/12/11 12:09:33;;;;;;;23.85;7.70;;;;;;;5.17;100.00;101485.63;5171713;28;20035;-65